createdAt,value
2022-09-25T00:00:02.809Z,2.10
2022-09-25T00:00:36.671Z,1.90
2022-09-25T00:01:09.304Z,1.53
2022-09-25T00:01:41.409Z,1.73
2022-09-25T00:02:13.429Z,2.10
2022-09-25T00:02:45.494Z,1.80
2022-09-25T00:03:18.048Z,1.70
2022-09-25T00:03:50.321Z,1.37
2022-09-25T00:04:22.323Z,1.93
2022-09-25T00:04:54.291Z,1.47
2022-09-25T00:05:26.289Z,1.73
2022-09-25T00:06:18.085Z,1.50
2022-09-25T00:06:50.033Z,1.50
2022-09-25T00:07:21.976Z,1.70
2022-09-25T00:07:56.480Z,1.43
2022-09-25T00:08:29.103Z,1.60
2022-09-25T00:09:06.830Z,1.60
2022-09-25T00:09:41.786Z,1.40
2022-09-25T00:10:13.762Z,2.07
2022-09-25T00:10:47.464Z,2.07
2022-09-25T00:11:20.729Z,2.00
2022-09-25T00:11:52.729Z,1.60
2022-09-25T00:12:24.682Z,1.70
2022-09-25T00:12:56.648Z,1.53
2022-09-25T00:13:28.762Z,1.80
2022-09-25T00:14:01.431Z,1.77
2022-09-25T00:14:33.379Z,1.73
2022-09-25T00:15:05.842Z,1.40
2022-09-25T00:15:38.333Z,1.63
2022-09-25T00:16:11.709Z,1.50
2022-09-25T00:16:43.767Z,1.27
2022-09-25T00:17:15.867Z,1.70
2022-09-25T00:17:47.828Z,2.17
2022-09-25T00:18:38.807Z,1.50
2022-09-25T00:19:37.875Z,1.73
2022-09-25T00:20:10.267Z,1.87
2022-09-25T00:20:42.540Z,1.90
2022-09-25T00:21:15.755Z,1.93
2022-09-25T00:21:53.109Z,1.77
2022-09-25T00:22:26.185Z,1.20
2022-09-25T00:23:02.282Z,1.57
2022-09-25T00:23:34.473Z,1.33
2022-09-25T00:24:07.819Z,1.60
2022-09-25T00:24:39.797Z,1.70
2022-09-25T00:25:15.433Z,1.50
2022-09-25T00:25:53.196Z,1.40
2022-09-25T00:26:26.456Z,1.80
2022-09-25T00:27:00.047Z,1.70
2022-09-25T00:27:32.644Z,1.40
2022-09-25T00:28:04.738Z,1.60
2022-09-25T00:28:36.890Z,1.70
2022-09-25T00:29:10.726Z,1.67
2022-09-25T00:29:42.752Z,1.40
2022-09-25T00:30:16.515Z,1.40
2022-09-25T00:30:48.485Z,1.70
2022-09-25T00:31:24.504Z,2.10
2022-09-25T00:31:56.682Z,1.60
2022-09-25T00:32:28.693Z,1.47
2022-09-25T00:33:00.631Z,1.40
2022-09-25T00:33:32.929Z,1.60
2022-09-25T00:34:05.564Z,1.80
2022-09-25T00:34:38.300Z,1.53
2022-09-25T00:35:10.370Z,1.80
2022-09-25T00:35:42.330Z,1.50
2022-09-25T00:36:14.270Z,1.47
2022-09-25T00:36:46.259Z,1.33
2022-09-25T00:37:18.297Z,1.40
2022-09-25T00:37:50.290Z,1.30
2022-09-25T00:38:22.220Z,1.40
2022-09-25T00:38:54.610Z,1.27
2022-09-25T00:39:26.608Z,1.40
2022-09-25T00:39:58.557Z,2.87
2022-09-25T00:40:30.584Z,1.53
2022-09-25T00:41:03.515Z,1.50
2022-09-25T00:41:35.544Z,1.47
2022-09-25T00:42:07.499Z,1.53
2022-09-25T00:42:40.240Z,1.37
2022-09-25T00:43:15.999Z,1.40
2022-09-25T00:43:50.627Z,1.67
2022-09-25T00:44:41.415Z,1.20
2022-09-25T00:45:16.219Z,1.63
2022-09-25T00:45:48.269Z,1.47
2022-09-25T00:46:35.543Z,1.40
2022-09-25T00:47:08.396Z,1.60
2022-09-25T00:47:46.676Z,1.40
2022-09-25T00:48:18.699Z,1.40
2022-09-25T00:49:10.718Z,1.50
2022-09-25T00:49:42.872Z,1.53
2022-09-25T00:50:41.256Z,1.30
2022-09-25T00:51:13.576Z,1.30
2022-09-25T00:51:45.483Z,1.37
2022-09-25T00:52:17.830Z,1.37
2022-09-25T00:52:51.529Z,1.50
2022-09-25T00:53:35.650Z,1.60
2022-09-25T00:54:10.435Z,1.67
2022-09-25T00:54:45.973Z,1.73
2022-09-25T00:55:18.088Z,2.10
2022-09-25T00:55:50.338Z,1.50
2022-09-25T00:56:22.334Z,1.70
2022-09-25T00:56:55.302Z,1.83
2022-09-25T00:57:30.033Z,1.60
2022-09-25T00:58:02.840Z,1.40
2022-09-25T00:58:35.520Z,1.83
2022-09-25T00:59:10.043Z,1.70
2022-09-25T00:59:44.116Z,1.40
2022-09-25T01:00:16.226Z,1.40
2022-09-25T01:00:48.564Z,1.70
2022-09-25T01:01:22.505Z,1.70
2022-09-25T01:01:55.328Z,1.77
2022-09-25T01:02:28.856Z,1.30
2022-09-25T01:03:01.589Z,1.30
2022-09-25T01:03:34.107Z,1.43
2022-09-25T01:04:06.610Z,1.37
2022-09-25T01:04:38.726Z,1.73
2022-09-25T01:05:12.027Z,1.37
2022-09-25T01:05:44.674Z,1.43
2022-09-25T01:06:17.221Z,1.40
2022-09-25T01:06:50.195Z,1.53
2022-09-25T01:07:22.211Z,1.47
2022-09-25T01:07:55.222Z,1.60
2022-09-25T01:08:28.410Z,1.87
2022-09-25T01:09:00.463Z,1.40
2022-09-25T01:09:32.514Z,1.77
2022-09-25T01:10:06.979Z,1.33
2022-09-25T01:10:39.268Z,1.50
2022-09-25T01:11:11.544Z,1.47
2022-09-25T01:11:47.132Z,1.30
2022-09-25T01:12:19.271Z,1.40
2022-09-25T01:12:51.975Z,1.20
2022-09-25T01:13:23.971Z,1.47
2022-09-25T01:13:57.042Z,1.43
2022-09-25T01:14:29.139Z,1.30
2022-09-25T01:15:01.640Z,1.80
2022-09-25T01:15:38.255Z,1.50
2022-09-25T01:16:24.596Z,1.40
2022-09-25T01:17:03.472Z,1.70
2022-09-25T01:17:38.629Z,1.43
2022-09-25T01:18:25.765Z,1.47
2022-09-25T01:19:10.972Z,1.50
2022-09-25T01:19:43.287Z,1.70
2022-09-25T01:20:34.092Z,1.60
2022-09-25T01:21:14.994Z,1.50
2022-09-25T01:21:52.888Z,1.40
2022-09-25T01:22:36.886Z,1.30
2022-09-25T01:23:11.690Z,1.57
2022-09-25T01:23:46.427Z,1.67
2022-09-25T01:24:27.706Z,1.53
2022-09-25T01:25:16.988Z,1.63
2022-09-25T01:26:04.240Z,1.57
2022-09-25T01:26:54.763Z,1.53
2022-09-25T01:27:45.477Z,1.57
2022-09-25T01:28:26.551Z,1.60
2022-09-25T01:29:01.326Z,1.33
2022-09-25T01:29:37.413Z,1.80
2022-09-25T01:30:12.047Z,1.57
2022-09-25T01:30:45.998Z,1.73
2022-09-25T01:31:21.899Z,1.77
2022-09-25T01:32:03.877Z,1.80
2022-09-25T01:32:38.619Z,1.40
2022-09-25T01:33:14.792Z,1.30
2022-09-25T01:33:50.366Z,1.53
2022-09-25T01:34:42.633Z,1.60
2022-09-25T01:35:30.017Z,1.63
2022-09-25T01:36:02.030Z,1.70
2022-09-25T01:36:41.720Z,2.10
2022-09-25T01:37:13.724Z,1.70
2022-09-25T01:37:50.665Z,1.33
2022-09-25T01:38:38.519Z,1.57
2022-09-25T01:39:20.531Z,1.57
2022-09-25T01:40:11.895Z,1.80
2022-09-25T01:40:46.876Z,1.60
2022-09-25T01:41:18.928Z,1.40
2022-09-25T01:41:55.151Z,1.40
2022-09-25T01:42:29.839Z,1.50
2022-09-25T01:43:07.591Z,1.77
2022-09-25T01:43:45.457Z,1.33
2022-09-25T01:44:31.126Z,1.40
2022-09-25T01:45:07.827Z,1.43
2022-09-25T01:45:44.173Z,1.60
2022-09-25T01:46:18.973Z,1.57
2022-09-25T01:46:51.901Z,1.50
2022-09-25T01:47:26.540Z,1.70
2022-09-25T01:47:59.698Z,1.50
2022-09-25T01:48:32.724Z,1.50
2022-09-25T01:49:09.831Z,1.47
2022-09-25T01:49:53.194Z,1.43
2022-09-25T01:50:28.421Z,1.70
2022-09-25T01:51:05.512Z,1.23
2022-09-25T01:51:39.363Z,1.63
2022-09-25T01:52:14.365Z,1.60
2022-09-25T01:52:49.503Z,1.50
2022-09-25T01:53:26.517Z,1.50
2022-09-25T01:54:02.181Z,2.13
2022-09-25T01:54:40.156Z,1.40
2022-09-25T01:55:16.137Z,1.47
2022-09-25T01:55:50.985Z,1.70
2022-09-25T01:56:32.613Z,1.60
2022-09-25T01:57:10.358Z,2.07
2022-09-25T01:57:57.540Z,1.30
2022-09-25T01:58:35.351Z,1.70
2022-09-25T01:59:13.769Z,1.53
2022-09-25T01:59:49.149Z,1.60
2022-09-25T02:00:22.845Z,1.60
2022-09-25T02:01:00.660Z,1.60
2022-09-25T02:01:34.656Z,1.67
2022-09-25T02:02:08.749Z,1.40
2022-09-25T02:02:46.569Z,1.77
2022-09-25T02:03:23.797Z,1.90
2022-09-25T02:04:00.256Z,1.70
2022-09-25T02:04:34.525Z,1.43
2022-09-25T02:05:14.344Z,1.50
2022-09-25T02:05:48.716Z,1.80
2022-09-25T02:06:21.055Z,1.60
2022-09-25T02:06:55.260Z,1.80
2022-09-25T02:07:35.484Z,1.80
2022-09-25T02:08:10.886Z,1.57
2022-09-25T02:08:55.467Z,1.57
2022-09-25T02:09:46.192Z,1.83
2022-09-25T02:10:22.023Z,1.60
2022-09-25T02:10:56.000Z,1.60
2022-09-25T02:11:31.583Z,2.03
2022-09-25T02:12:12.777Z,1.47
2022-09-25T02:12:47.517Z,1.67
2022-09-25T02:13:20.995Z,1.57
2022-09-25T02:14:03.848Z,1.40
2022-09-25T02:14:39.183Z,1.30
2022-09-25T02:15:13.403Z,1.70
2022-09-25T02:15:53.660Z,1.40
2022-09-25T02:16:30.566Z,1.70
2022-09-25T02:17:06.142Z,1.77
2022-09-25T02:18:00.717Z,1.60
2022-09-25T02:19:08.727Z,1.50
2022-09-25T02:19:59.531Z,1.50
2022-09-25T02:20:32.688Z,1.60
2022-09-25T02:21:10.683Z,1.40
2022-09-25T02:21:47.920Z,1.50
2022-09-25T02:22:20.091Z,1.60
2022-09-25T02:22:53.712Z,1.30
2022-09-25T02:23:31.497Z,1.70
2022-09-25T02:24:03.594Z,1.40
2022-09-25T02:24:39.594Z,1.57
2022-09-25T02:25:19.357Z,1.60
2022-09-25T02:26:02.540Z,1.70
2022-09-25T02:26:35.084Z,1.83
2022-09-25T02:27:07.141Z,1.53
2022-09-25T02:27:39.175Z,1.57
2022-09-25T02:28:11.246Z,1.70
2022-09-25T02:28:43.562Z,1.57
2022-09-25T02:29:17.062Z,1.77
2022-09-25T02:29:49.108Z,1.53
2022-09-25T02:30:21.262Z,1.50
2022-09-25T02:30:54.555Z,1.37
2022-09-25T02:31:35.635Z,1.40
2022-09-25T02:32:08.801Z,1.40
2022-09-25T02:32:40.783Z,2.07
2022-09-25T02:33:12.756Z,1.83
2022-09-25T02:33:44.819Z,1.50
2022-09-25T02:34:17.076Z,1.60
2022-09-25T02:34:49.606Z,1.70
2022-09-25T02:35:21.771Z,1.67
2022-09-25T02:35:54.234Z,1.90
2022-09-25T02:36:26.402Z,1.40
2022-09-25T02:36:59.022Z,1.57
2022-09-25T02:37:31.090Z,1.67
2022-09-25T02:38:03.126Z,1.93
2022-09-25T02:38:35.704Z,1.60
2022-09-25T02:39:08.399Z,1.53
2022-09-25T02:39:41.667Z,1.50
2022-09-25T02:40:13.891Z,1.60
2022-09-25T02:40:55.132Z,1.63
2022-09-25T02:41:27.246Z,1.80
2022-09-25T02:41:59.274Z,1.50
2022-09-25T02:42:45.679Z,1.70
2022-09-25T02:43:23.544Z,1.77
2022-09-25T02:44:05.586Z,1.90
2022-09-25T02:44:52.637Z,1.80
2022-09-25T02:45:33.657Z,2.17
2022-09-25T02:46:14.115Z,2.03
2022-09-25T02:47:03.399Z,1.90
2022-09-25T02:47:54.200Z,1.90
2022-09-25T02:48:36.546Z,1.57
2022-09-25T02:49:08.556Z,1.70
2022-09-25T02:49:47.684Z,2.00
2022-09-25T02:50:26.152Z,1.97
2022-09-25T02:51:17.613Z,1.50
2022-09-25T02:51:55.051Z,1.70
2022-09-25T02:52:38.844Z,1.60
2022-09-25T02:53:16.724Z,1.63
2022-09-25T02:54:08.630Z,1.70
2022-09-25T02:54:49.378Z,1.70
2022-09-25T02:55:33.523Z,1.70
2022-09-25T02:56:08.574Z,2.00
2022-09-25T02:56:43.530Z,1.97
2022-09-25T02:57:34.164Z,1.50
2022-09-25T02:58:13.588Z,1.20
2022-09-25T02:58:49.348Z,1.80
2022-09-25T02:59:24.938Z,1.70
2022-09-25T02:59:59.462Z,2.20
2022-09-25T03:00:34.371Z,1.83
2022-09-25T03:01:08.363Z,1.73
2022-09-25T03:01:41.970Z,1.90
2022-09-25T03:02:14.965Z,1.97
2022-09-25T03:02:52.209Z,1.80
2022-09-25T03:03:25.340Z,1.70
2022-09-25T03:03:58.697Z,1.90
2022-09-25T03:04:32.234Z,1.90
2022-09-25T03:05:05.615Z,1.77
2022-09-25T03:05:37.666Z,2.03
2022-09-25T03:06:10.334Z,1.83
2022-09-25T03:06:42.760Z,1.73
2022-09-25T03:07:16.117Z,1.97
2022-09-25T03:08:07.105Z,2.10
2022-09-25T03:08:42.775Z,2.20
2022-09-25T03:09:15.487Z,1.87
2022-09-25T03:09:48.810Z,1.97
2022-09-25T03:10:21.734Z,1.67
2022-09-25T03:10:54.038Z,1.80
2022-09-25T03:11:29.277Z,1.80
2022-09-25T03:12:04.370Z,2.13
2022-09-25T03:12:36.602Z,1.87
2022-09-25T03:13:19.139Z,1.67
2022-09-25T03:13:58.375Z,1.83
2022-09-25T03:14:30.855Z,1.80
2022-09-25T03:15:02.982Z,1.80
2022-09-25T03:15:37.150Z,2.57
2022-09-25T03:16:26.117Z,1.90
2022-09-25T03:16:59.922Z,1.63
2022-09-25T03:17:33.383Z,1.97
2022-09-25T03:18:06.027Z,2.03
2022-09-25T03:18:38.064Z,1.97
2022-09-25T03:19:10.126Z,2.20
2022-09-25T03:19:42.147Z,2.00
2022-09-25T03:20:14.213Z,1.80
2022-09-25T03:20:46.343Z,1.80
2022-09-25T03:21:18.365Z,1.53
2022-09-25T03:21:51.146Z,1.83
2022-09-25T03:22:23.184Z,1.97
2022-09-25T03:22:55.170Z,1.73
2022-09-25T03:23:27.224Z,1.83
2022-09-25T03:23:59.632Z,2.17
2022-09-25T03:24:31.620Z,1.80
2022-09-25T03:25:05.433Z,2.00
2022-09-25T03:25:38.146Z,1.80
2022-09-25T03:26:10.344Z,2.40
2022-09-25T03:26:43.229Z,1.70
2022-09-25T03:27:15.307Z,1.60
2022-09-25T03:27:47.586Z,1.97
2022-09-25T03:28:20.069Z,1.73
2022-09-25T03:28:52.176Z,1.90
2022-09-25T03:29:24.164Z,1.60
2022-09-25T03:29:56.189Z,2.17
2022-09-25T03:30:30.093Z,1.57
2022-09-25T03:31:10.505Z,1.57
2022-09-25T03:31:43.245Z,2.10
2022-09-25T03:32:15.263Z,2.37
2022-09-25T03:32:47.230Z,1.90
2022-09-25T03:33:19.217Z,1.73
2022-09-25T03:33:51.231Z,1.90
2022-09-25T03:34:23.331Z,1.93
2022-09-25T03:34:55.905Z,2.33
2022-09-25T03:35:27.935Z,1.83
2022-09-25T03:36:20.691Z,1.87
2022-09-25T03:36:52.894Z,2.07
2022-09-25T03:37:25.354Z,1.87
2022-09-25T03:37:58.188Z,2.00
2022-09-25T03:38:30.228Z,2.43
2022-09-25T03:39:02.694Z,2.20
2022-09-25T03:39:34.708Z,2.43
2022-09-25T03:40:07.048Z,2.20
2022-09-25T03:40:39.411Z,2.03
2022-09-25T03:41:12.477Z,2.03
2022-09-25T03:41:44.946Z,1.80
2022-09-25T03:42:20.107Z,2.00
2022-09-25T03:42:52.128Z,2.20
2022-09-25T03:43:24.305Z,2.30
2022-09-25T03:43:56.751Z,1.77
2022-09-25T03:44:29.256Z,2.50
2022-09-25T03:45:02.327Z,2.00
2022-09-25T03:45:34.392Z,2.33
2022-09-25T03:46:07.277Z,1.80
2022-09-25T03:46:39.444Z,1.90
2022-09-25T03:47:11.922Z,2.17
2022-09-25T03:47:44.011Z,1.90
2022-09-25T03:48:16.070Z,2.30
2022-09-25T03:48:48.129Z,1.97
2022-09-25T03:49:20.270Z,2.10
2022-09-25T03:49:52.225Z,1.80
2022-09-25T03:50:24.289Z,2.10
2022-09-25T03:50:56.321Z,1.90
2022-09-25T03:51:29.322Z,2.00
2022-09-25T03:52:01.544Z,1.80
2022-09-25T03:52:34.040Z,1.90
2022-09-25T03:53:06.079Z,1.90
2022-09-25T03:53:40.101Z,2.27
2022-09-25T03:54:12.473Z,2.27
2022-09-25T03:54:44.591Z,2.00
2022-09-25T03:55:16.848Z,2.00
2022-09-25T03:55:48.920Z,2.20
2022-09-25T03:56:23.400Z,1.93
2022-09-25T03:56:55.482Z,1.87
2022-09-25T03:57:27.488Z,1.80
2022-09-25T03:57:59.493Z,1.80
2022-09-25T03:58:31.533Z,2.00
2022-09-25T03:59:03.597Z,2.10
2022-09-25T03:59:35.623Z,2.03
2022-09-25T04:00:07.852Z,2.03
2022-09-25T04:00:46.408Z,2.50
2022-09-25T04:01:21.940Z,2.40
2022-09-25T04:01:54.203Z,1.70
2022-09-25T04:02:26.344Z,1.73
2022-09-25T04:02:59.416Z,2.10
2022-09-25T04:03:32.729Z,1.83
2022-09-25T04:04:04.775Z,2.10
2022-09-25T04:04:37.680Z,1.80
2022-09-25T04:05:09.957Z,2.30
2022-09-25T04:05:43.517Z,2.00
2022-09-25T04:06:18.300Z,1.93
2022-09-25T04:06:50.360Z,2.10
2022-09-25T04:07:22.559Z,2.37
2022-09-25T04:07:54.589Z,1.87
2022-09-25T04:08:27.332Z,2.07
2022-09-25T04:08:59.304Z,2.53
2022-09-25T04:09:32.273Z,2.00
2022-09-25T04:10:04.394Z,2.30
2022-09-25T04:10:38.742Z,2.03
2022-09-25T04:11:11.150Z,2.33
2022-09-25T04:11:43.843Z,1.90
2022-09-25T04:12:16.310Z,2.27
2022-09-25T04:12:48.324Z,2.57
2022-09-25T04:13:20.278Z,1.70
2022-09-25T04:13:52.754Z,2.23
2022-09-25T04:14:24.907Z,2.20
2022-09-25T04:14:56.993Z,2.50
2022-09-25T04:15:29.088Z,2.00
2022-09-25T04:16:02.080Z,2.07
2022-09-25T04:16:34.368Z,2.30
2022-09-25T04:17:06.410Z,1.90
2022-09-25T04:17:38.395Z,2.03
2022-09-25T04:18:10.397Z,1.80
2022-09-25T04:18:43.050Z,1.97
2022-09-25T04:19:15.578Z,2.07
2022-09-25T04:19:47.572Z,2.03
2022-09-25T04:20:19.627Z,2.40
2022-09-25T04:20:51.697Z,2.40
2022-09-25T04:21:23.792Z,1.97
2022-09-25T04:21:55.773Z,1.97
2022-09-25T04:22:27.885Z,2.17
2022-09-25T04:22:59.906Z,2.00
2022-09-25T04:23:32.391Z,2.20
2022-09-25T04:24:23.265Z,2.27
2022-09-25T04:24:55.451Z,2.43
2022-09-25T04:25:27.593Z,2.17
2022-09-25T04:25:59.616Z,2.33
2022-09-25T04:26:31.799Z,2.60
2022-09-25T04:27:03.802Z,1.83
2022-09-25T04:27:36.679Z,1.90
2022-09-25T04:28:10.109Z,2.10
2022-09-25T04:28:45.331Z,2.10
2022-09-25T04:29:17.504Z,2.37
2022-09-25T04:29:49.981Z,2.20
2022-09-25T04:30:22.620Z,2.20
2022-09-25T04:30:54.632Z,2.70
2022-09-25T04:31:27.274Z,2.37
2022-09-25T04:32:17.691Z,2.13
2022-09-25T04:33:08.135Z,2.60
2022-09-25T04:33:46.356Z,2.90
2022-09-25T04:34:18.474Z,1.93
2022-09-25T04:34:50.513Z,2.37
2022-09-25T04:35:22.615Z,2.30
2022-09-25T04:35:54.643Z,1.73
2022-09-25T04:36:26.680Z,2.27
2022-09-25T04:36:58.741Z,2.80
2022-09-25T04:37:30.779Z,2.17
2022-09-25T04:38:02.774Z,2.30
2022-09-25T04:38:34.872Z,2.13
2022-09-25T04:39:06.895Z,2.20
2022-09-25T04:39:39.099Z,2.70
2022-09-25T04:40:11.102Z,2.00
2022-09-25T04:40:43.166Z,2.20
2022-09-25T04:41:16.612Z,1.83
2022-09-25T04:41:48.633Z,2.30
2022-09-25T04:42:24.488Z,2.57
2022-09-25T04:43:00.329Z,2.00
2022-09-25T04:43:32.813Z,2.17
2022-09-25T04:44:05.273Z,2.70
2022-09-25T04:44:37.251Z,2.30
2022-09-25T04:45:09.407Z,2.20
2022-09-25T04:45:41.567Z,2.33
2022-09-25T04:46:20.114Z,2.43
2022-09-25T04:46:53.833Z,2.43
2022-09-25T04:47:27.399Z,2.03
2022-09-25T04:48:00.052Z,1.70
2022-09-25T04:48:32.566Z,2.10
2022-09-25T04:49:04.565Z,1.97
2022-09-25T04:49:38.597Z,2.43
2022-09-25T04:50:10.633Z,2.07
2022-09-25T04:50:47.392Z,2.50
2022-09-25T04:51:19.398Z,2.00
2022-09-25T04:51:51.430Z,2.30
2022-09-25T04:52:23.460Z,2.00
2022-09-25T04:52:56.984Z,2.07
2022-09-25T04:53:30.134Z,2.33
2022-09-25T04:54:02.144Z,2.40
2022-09-25T04:54:34.168Z,2.20
2022-09-25T04:55:06.870Z,2.33
2022-09-25T04:55:39.120Z,2.33
2022-09-25T04:56:16.369Z,2.13
2022-09-25T04:56:48.872Z,2.43
2022-09-25T04:57:39.103Z,2.60
2022-09-25T04:58:13.737Z,2.00
2022-09-25T04:58:50.208Z,2.10
2022-09-25T04:59:22.286Z,2.10
2022-09-25T04:59:54.577Z,2.40
2022-09-25T05:00:30.783Z,2.27
2022-09-25T05:01:08.792Z,2.47
2022-09-25T05:01:41.188Z,2.40
2022-09-25T05:02:13.546Z,2.30
2022-09-25T05:02:46.574Z,2.37
2022-09-25T05:03:18.800Z,2.07
2022-09-25T05:03:52.530Z,2.20
2022-09-25T05:04:24.620Z,2.30
2022-09-25T05:04:56.648Z,2.13
2022-09-25T05:05:30.490Z,2.20
2022-09-25T05:06:02.604Z,2.20
2022-09-25T05:06:34.638Z,2.53
2022-09-25T05:07:06.876Z,2.17
2022-09-25T05:07:39.553Z,2.10
2022-09-25T05:08:11.629Z,2.40
2022-09-25T05:08:43.666Z,2.10
2022-09-25T05:09:15.702Z,2.07
2022-09-25T05:09:47.729Z,2.30
2022-09-25T05:10:20.866Z,2.07
2022-09-25T05:10:52.975Z,2.40
2022-09-25T05:11:25.338Z,2.40
2022-09-25T05:11:57.677Z,2.43
2022-09-25T05:12:29.706Z,2.57
2022-09-25T05:13:02.866Z,2.37
2022-09-25T05:13:34.810Z,2.00
2022-09-25T05:14:06.984Z,1.90
2022-09-25T05:14:41.109Z,1.93
2022-09-25T05:15:13.498Z,2.53
2022-09-25T05:15:45.542Z,2.37
2022-09-25T05:16:17.720Z,2.17
2022-09-25T05:16:50.134Z,2.10
2022-09-25T05:17:22.159Z,2.00
2022-09-25T05:18:06.260Z,2.40
2022-09-25T05:18:38.299Z,2.13
2022-09-25T05:19:10.367Z,2.00
2022-09-25T05:19:42.398Z,2.20
2022-09-25T05:20:14.686Z,2.10
2022-09-25T05:20:46.918Z,2.57
2022-09-25T05:21:18.962Z,2.03
2022-09-25T05:21:53.175Z,2.53
2022-09-25T05:22:25.291Z,2.40
2022-09-25T05:22:58.073Z,2.53
2022-09-25T05:23:30.174Z,2.20
2022-09-25T05:24:02.781Z,2.10
2022-09-25T05:24:35.459Z,2.27
2022-09-25T05:25:07.712Z,2.50
2022-09-25T05:25:39.780Z,2.07
2022-09-25T05:26:11.874Z,2.30
2022-09-25T05:26:43.896Z,2.00
2022-09-25T05:27:15.992Z,2.27
2022-09-25T05:27:48.608Z,1.90
2022-09-25T05:28:20.612Z,1.63
2022-09-25T05:28:52.589Z,2.23
2022-09-25T05:29:24.605Z,1.80
2022-09-25T05:29:56.904Z,2.20
2022-09-25T05:30:30.350Z,2.23
2022-09-25T05:31:03.553Z,2.13
2022-09-25T05:31:36.625Z,2.30
2022-09-25T05:32:08.714Z,2.17
2022-09-25T05:32:48.260Z,2.00
2022-09-25T05:33:20.825Z,2.03
2022-09-25T05:33:53.968Z,2.30
2022-09-25T05:34:26.178Z,2.07
2022-09-25T05:34:58.257Z,2.20
2022-09-25T05:35:31.250Z,2.13
2022-09-25T05:36:04.422Z,2.40
2022-09-25T05:36:36.431Z,2.00
2022-09-25T05:37:08.474Z,2.10
2022-09-25T05:37:40.602Z,1.70
2022-09-25T05:38:12.703Z,1.90
2022-09-25T05:38:44.745Z,2.00
2022-09-25T05:39:16.888Z,2.00
2022-09-25T05:39:48.957Z,2.20
2022-09-25T05:40:21.307Z,1.90
2022-09-25T05:40:53.441Z,2.33
2022-09-25T05:41:26.545Z,2.57
2022-09-25T05:41:58.633Z,2.47
2022-09-25T05:42:31.067Z,2.10
2022-09-25T05:43:03.181Z,2.47
2022-09-25T05:43:39.199Z,2.17
2022-09-25T05:44:11.321Z,2.33
2022-09-25T05:44:43.363Z,2.60
2022-09-25T05:45:15.832Z,2.20
2022-09-25T05:45:57.623Z,2.30
2022-09-25T05:46:29.702Z,2.00
2022-09-25T05:47:03.035Z,2.57
2022-09-25T05:47:35.038Z,2.30
2022-09-25T05:48:08.167Z,2.37
2022-09-25T05:48:40.198Z,2.50
2022-09-25T05:49:12.236Z,2.80
2022-09-25T05:49:44.266Z,2.27
2022-09-25T05:50:16.905Z,2.63
2022-09-25T05:50:55.769Z,2.47
2022-09-25T05:51:27.847Z,2.30
2022-09-25T05:51:59.820Z,3.00
2022-09-25T05:52:31.993Z,2.40
2022-09-25T05:53:05.018Z,2.57
2022-09-25T05:53:38.088Z,2.53
2022-09-25T05:54:10.214Z,2.20
2022-09-25T05:54:42.340Z,2.70
2022-09-25T05:55:14.413Z,2.33
2022-09-25T05:55:50.544Z,2.60
2022-09-25T05:56:24.826Z,2.20
2022-09-25T05:56:56.934Z,2.47
2022-09-25T05:57:32.415Z,2.20
2022-09-25T05:58:04.799Z,2.73
2022-09-25T05:58:37.237Z,2.40
2022-09-25T05:59:09.391Z,2.30
2022-09-25T05:59:41.367Z,1.93
2022-09-25T06:00:13.944Z,2.00
2022-09-25T06:00:45.985Z,2.43
2022-09-25T06:01:18.019Z,2.23
2022-09-25T06:01:51.147Z,2.20
2022-09-25T06:02:23.216Z,2.30
2022-09-25T06:02:55.360Z,2.23
2022-09-25T06:03:29.611Z,2.47
2022-09-25T06:04:01.771Z,2.20
2022-09-25T06:04:33.836Z,2.30
2022-09-25T06:05:05.975Z,2.17
2022-09-25T06:05:38.685Z,2.10
2022-09-25T06:06:10.703Z,2.07
2022-09-25T06:06:42.728Z,1.90
2022-09-25T06:07:14.823Z,2.10
2022-09-25T06:07:51.849Z,1.90
2022-09-25T06:08:24.010Z,2.33
2022-09-25T06:08:56.240Z,2.00
2022-09-25T06:09:28.262Z,2.33
2022-09-25T06:10:00.315Z,2.23
2022-09-25T06:10:32.716Z,2.30
2022-09-25T06:11:05.308Z,2.07
2022-09-25T06:11:37.367Z,2.03
2022-09-25T06:12:09.449Z,2.47
2022-09-25T06:12:41.479Z,2.10
2022-09-25T06:13:13.510Z,2.13
2022-09-25T06:13:52.030Z,2.20
2022-09-25T06:14:26.430Z,2.20
2022-09-25T06:14:58.363Z,1.90
2022-09-25T06:15:36.076Z,2.20
2022-09-25T06:16:13.261Z,2.20
2022-09-25T06:16:46.937Z,2.10
2022-09-25T06:17:19.228Z,2.40
2022-09-25T06:17:51.413Z,2.00
2022-09-25T06:18:24.246Z,2.50
2022-09-25T06:18:56.264Z,2.00
2022-09-25T06:19:29.812Z,2.13
2022-09-25T06:20:01.835Z,2.37
2022-09-25T06:20:34.168Z,2.27
2022-09-25T06:21:06.148Z,2.20
2022-09-25T06:21:38.149Z,2.40
2022-09-25T06:22:10.234Z,2.20
2022-09-25T06:22:44.386Z,2.30
2022-09-25T06:23:17.222Z,1.90
2022-09-25T06:23:49.413Z,2.03
2022-09-25T06:24:21.457Z,2.00
2022-09-25T06:24:53.424Z,2.47
2022-09-25T06:25:26.835Z,1.60
2022-09-25T06:26:02.931Z,2.00
2022-09-25T06:26:35.379Z,2.37
2022-09-25T06:27:07.821Z,1.90
2022-09-25T06:27:40.536Z,2.00
2022-09-25T06:28:12.591Z,2.20
2022-09-25T06:28:44.570Z,2.07
2022-09-25T06:29:16.535Z,2.00
2022-09-25T06:29:48.545Z,2.30
2022-09-25T06:30:21.367Z,2.57
2022-09-25T06:30:53.383Z,2.17
2022-09-25T06:31:25.961Z,2.40
2022-09-25T06:31:58.030Z,2.17
2022-09-25T06:32:29.966Z,2.77
2022-09-25T06:33:09.596Z,2.30
2022-09-25T06:33:43.752Z,2.30
2022-09-25T06:34:15.707Z,2.67
2022-09-25T06:34:47.635Z,2.50
2022-09-25T06:35:19.643Z,2.07
2022-09-25T06:35:51.624Z,2.37
2022-09-25T06:36:23.549Z,2.53
2022-09-25T06:36:55.613Z,2.00
2022-09-25T06:37:27.691Z,2.57
2022-09-25T06:38:00.560Z,1.73
2022-09-25T06:38:34.356Z,2.77
2022-09-25T06:39:06.423Z,2.13
2022-09-25T06:39:38.479Z,2.30
2022-09-25T06:40:10.664Z,2.70
2022-09-25T06:40:43.416Z,2.30
2022-09-25T06:41:15.493Z,2.37
2022-09-25T06:41:47.473Z,2.23
2022-09-25T06:42:25.857Z,2.10
2022-09-25T06:42:58.297Z,2.53
2022-09-25T06:43:30.423Z,2.77
2022-09-25T06:44:02.645Z,2.20
2022-09-25T06:44:34.732Z,2.27
2022-09-25T06:45:06.936Z,2.97
2022-09-25T06:45:39.420Z,2.20
2022-09-25T06:46:11.491Z,2.33
2022-09-25T06:46:45.218Z,2.83
2022-09-25T06:47:19.618Z,2.90
2022-09-25T06:47:57.712Z,3.00
2022-09-25T06:48:30.349Z,2.97
2022-09-25T06:49:02.430Z,3.00
2022-09-25T06:49:34.468Z,3.00
2022-09-25T06:50:06.683Z,3.37
2022-09-25T06:50:41.790Z,2.77
2022-09-25T06:51:13.772Z,2.87
2022-09-25T06:51:46.730Z,2.60
2022-09-25T06:52:19.058Z,2.27
2022-09-25T06:52:51.056Z,3.07
2022-09-25T06:53:24.183Z,2.43
2022-09-25T06:53:56.271Z,2.90
2022-09-25T06:54:30.141Z,2.50
2022-09-25T06:55:02.077Z,2.30
2022-09-25T06:55:35.103Z,2.13
2022-09-25T06:56:07.189Z,2.10
2022-09-25T06:56:39.389Z,2.47
2022-09-25T06:57:12.500Z,2.30
2022-09-25T06:57:46.114Z,2.23
2022-09-25T06:58:20.521Z,2.03
2022-09-25T06:58:52.553Z,3.03
2022-09-25T06:59:25.895Z,2.50
2022-09-25T06:59:57.903Z,2.30
2022-09-25T07:00:30.264Z,2.73
2022-09-25T07:01:06.296Z,2.70
2022-09-25T07:01:41.239Z,1.90
2022-09-25T07:02:32.019Z,3.00
2022-09-25T07:03:22.530Z,2.50
2022-09-25T07:03:54.537Z,2.60
2022-09-25T07:04:26.727Z,2.47
2022-09-25T07:05:00.422Z,2.80
2022-09-25T07:05:32.862Z,2.47
2022-09-25T07:06:05.788Z,2.57
2022-09-25T07:06:37.941Z,3.00
2022-09-25T07:07:09.940Z,2.13
2022-09-25T07:07:42.211Z,2.97
2022-09-25T07:08:16.088Z,2.63
2022-09-25T07:08:48.469Z,2.70
2022-09-25T07:09:20.526Z,2.80
2022-09-25T07:09:52.599Z,2.73
2022-09-25T07:10:24.801Z,2.90
2022-09-25T07:10:57.965Z,2.70
2022-09-25T07:11:31.402Z,2.80
2022-09-25T07:12:03.457Z,2.77
2022-09-25T07:12:35.522Z,2.70
2022-09-25T07:13:07.516Z,2.23
2022-09-25T07:13:39.716Z,2.63
2022-09-25T07:14:11.755Z,2.50
2022-09-25T07:14:46.714Z,2.70
2022-09-25T07:15:18.785Z,2.90
2022-09-25T07:15:54.512Z,2.50
2022-09-25T07:16:27.698Z,2.00
2022-09-25T07:16:59.776Z,1.90
2022-09-25T07:17:31.795Z,2.10
2022-09-25T07:18:03.811Z,2.37
2022-09-25T07:18:35.953Z,2.20
2022-09-25T07:19:09.342Z,2.30
2022-09-25T07:19:41.354Z,2.60
2022-09-25T07:20:15.425Z,3.10
2022-09-25T07:20:47.491Z,2.60
2022-09-25T07:21:20.619Z,3.13
2022-09-25T07:21:55.131Z,3.60
2022-09-25T07:22:27.148Z,3.40
2022-09-25T07:23:03.941Z,3.60
2022-09-25T07:23:36.432Z,3.80
2022-09-25T07:24:08.699Z,3.80
2022-09-25T07:24:40.732Z,3.70
2022-09-25T07:25:13.586Z,3.80
2022-09-25T07:25:46.538Z,3.87
2022-09-25T07:26:22.971Z,4.00
2022-09-25T07:26:54.979Z,3.83
2022-09-25T07:27:27.007Z,4.00
2022-09-25T07:27:59.122Z,3.63
2022-09-25T07:28:31.099Z,4.00
2022-09-25T07:29:06.318Z,3.50
2022-09-25T07:29:38.327Z,3.63
2022-09-25T07:30:10.646Z,4.17
2022-09-25T07:30:43.349Z,4.10
2022-09-25T07:31:26.105Z,4.10
2022-09-25T07:32:00.077Z,3.83
2022-09-25T07:32:32.202Z,4.30
2022-09-25T07:33:04.362Z,4.10
2022-09-25T07:33:36.635Z,3.80
2022-09-25T07:34:12.860Z,3.80
2022-09-25T07:34:44.986Z,4.10
2022-09-25T07:35:18.517Z,4.13
2022-09-25T07:35:53.391Z,3.83
2022-09-25T07:36:25.457Z,3.93
2022-09-25T07:36:57.433Z,4.03
2022-09-25T07:37:29.936Z,3.97